Time;durP1;ratioP1;P1;durP2;ratioP2;P2;SDS_P1;SDS_P2;PMS_P1;PMS_P2;Temp;Humidity;BMP_temperature;BMP_pressure;BME280_temperature;BME280_humidity;BME280_pressure;Samples;Min_cycle;Max_cycle;Signal;HPM_P1;HPM_P2
2022/06/30 00:01:44;;;;;;;15.48;13.90;;;;;;;22.59;100.00;98665.22;5045892;27;20644;-80
2022/06/30 00:04:13;;;;;;;16.08;14.45;;;;;;;22.50;100.00;98669.03;5031264;28;20194;-79
2022/06/30 00:06:41;;;;;;;14.80;13.20;;;;;;;22.56;100.00;98663.72;5032645;28;20207;-80
2022/06/30 00:09:10;;;;;;;15.48;13.82;;;;;;;22.42;100.00;98667.28;5029010;28;20253;-79
2022/06/30 00:11:40;;;;;;;15.95;14.25;;;;;;;22.35;100.00;98673.59;5030039;28;20209;-79
2022/06/30 00:14:09;;;;;;;16.50;13.30;;;;;;;22.36;100.00;98668.00;5039237;28;20217;-79
2022/06/30 00:16:38;;;;;;;15.85;14.35;;;;;;;22.27;100.00;98677.19;5029306;28;20197;-80
2022/06/30 00:19:07;;;;;;;17.05;14.55;;;;;;;22.01;100.00;98680.31;5031925;28;20201;-80
2022/06/30 00:21:35;;;;;;;17.85;15.65;;;;;;;22.07;100.00;98681.44;5034344;28;20194;-80
2022/06/30 00:24:05;;;;;;;15.93;14.38;;;;;;;22.13;100.00;98680.72;5025962;28;20194;-80
2022/06/30 00:26:33;;;;;;;16.60;15.00;;;;;;;22.12;100.00;98679.06;5043808;27;20236;-80
2022/06/30 00:29:02;;;;;;;16.15;14.50;;;;;;;22.13;100.00;98686.13;5043340;27;20206;-80
2022/06/30 00:31:31;;;;;;;17.02;14.57;;;;;;;22.19;100.00;98680.81;5032843;28;20201;-80
2022/06/30 00:34:00;;;;;;;15.70;14.20;;;;;;;22.21;100.00;98681.50;5027254;28;20336;-79
2022/06/30 00:36:29;;;;;;;16.27;14.45;;;;;;;22.18;100.00;98681.84;5028498;28;20198;-80
2022/06/30 00:38:57;;;;;;;17.67;15.82;;;;;;;22.07;100.00;98685.00;5036387;28;20202;-80
2022/06/30 00:41:26;;;;;;;15.63;14.10;;;;;;;22.18;100.00;98678.31;5042828;27;20212;-80
2022/06/30 00:43:54;;;;;;;16.98;15.32;;;;;;;22.16;100.00;98674.97;5023845;28;20277;-80
2022/06/30 00:46:22;;;;;;;16.48;14.77;;;;;;;22.21;100.00;98678.78;5043073;27;20671;-80
2022/06/30 00:48:50;;;;;;;17.00;15.40;;;;;;;21.87;100.00;98683.78;5046138;27;20217;-80
2022/06/30 00:51:25;;;;;;;20.83;14.18;;;;;;;21.92;100.00;98689.50;5028124;28;20258;-80
2022/06/30 00:53:56;;;;;;;17.75;15.95;;;;;;;21.84;100.00;98684.16;5031877;28;20218;-80
2022/06/30 00:56:28;;;;;;;18.17;15.23;;;;;;;21.70;100.00;98673.13;5030591;28;20202;-80
2022/06/30 00:59:02;;;;;;;16.40;14.85;;;;;;;21.79;100.00;98673.06;5045529;27;20197;-80
2022/06/30 01:01:31;;;;;;;20.20;16.73;;;;;;;21.67;100.00;98673.50;5027804;28;20214;-80
2022/06/30 01:04:00;;;;;;;17.65;15.38;;;;;;;21.53;100.00;98679.69;5029062;28;20268;-79
2022/06/30 01:06:30;;;;;;;18.20;15.88;;;;;;;21.44;100.00;98680.78;5029333;28;20198;-80
2022/06/30 01:08:59;;;;;;;18.67;16.45;;;;;;;21.35;100.00;98680.00;5031441;28;20190;-80
2022/06/30 01:14:13;;;;;;;17.52;15.63;;;;;;;21.38;100.00;98686.88;5031518;28;20217;-80
2022/06/30 01:16:42;;;;;;;16.83;15.15;;;;;;;21.44;100.00;98680.78;5031543;28;20274;-80
2022/06/30 01:19:10;;;;;;;17.25;14.50;;;;;;;21.51;100.00;98689.78;5042417;27;20282;-80
2022/06/30 01:21:40;;;;;;;17.05;15.18;;;;;;;21.52;100.00;98679.84;5028751;28;20198;-80
2022/06/30 01:24:09;;;;;;;16.38;14.68;;;;;;;21.53;100.00;98674.31;5031480;28;20204;-80
2022/06/30 01:26:37;;;;;;;17.48;15.60;;;;;;;21.54;100.00;98672.44;5019908;28;20205;-80
2022/06/30 01:29:07;;;;;;;17.45;15.70;;;;;;;21.50;100.00;98674.66;5031440;28;20193;-80
2022/06/30 01:31:36;;;;;;;17.63;15.63;;;;;;;21.25;100.00;98665.88;5041342;27;20206;-80
2022/06/30 01:34:04;;;;;;;19.05;15.20;;;;;;;21.30;100.00;98668.91;5034016;28;20229;-80
2022/06/30 01:36:32;;;;;;;17.17;15.38;;;;;;;21.28;100.00;98664.72;5029870;28;20198;-80
2022/06/30 01:39:02;;;;;;;19.70;15.32;;;;;;;21.22;100.00;98668.06;5027460;28;20194;-80
2022/06/30 01:41:30;;;;;;;15.63;13.95;;;;;;;21.25;100.00;98665.03;5033716;28;20213;-80
2022/06/30 01:43:58;;;;;;;18.15;14.50;;;;;;;21.18;100.00;98658.69;5037580;27;20205;-80
2022/06/30 01:46:26;;;;;;;15.90;13.85;;;;;;;21.20;100.00;98652.09;5024494;28;20280;-80
2022/06/30 01:48:55;;;;;;;17.02;14.02;;;;;;;21.11;100.00;98653.16;5030667;28;20234;-80
2022/06/30 01:51:23;;;;;;;17.67;15.98;;;;;;;21.11;100.00;98651.31;5031046;28;20277;-80
2022/06/30 01:53:51;;;;;;;18.48;14.43;;;;;;;20.91;100.00;98646.53;5031000;28;20214;-80
2022/06/30 01:56:21;;;;;;;19.92;15.10;;;;;;;20.74;100.00;98641.25;5044474;27;20190;-80
2022/06/30 01:58:54;;;;;;;17.00;15.25;;;;;;;20.73;100.00;98653.03;5028507;28;20314;-80
2022/06/30 02:01:22;;;;;;;17.48;15.70;;;;;;;20.74;100.00;98657.38;5030862;28;20210;-80
2022/06/30 02:03:51;;;;;;;17.95;15.68;;;;;;;20.79;100.00;98655.03;5027519;28;20285;-80
2022/06/30 02:06:19;;;;;;;20.33;15.93;;;;;;;20.86;100.00;98656.00;5025364;28;20201;-80
2022/06/30 02:08:48;;;;;;;17.05;15.25;;;;;;;20.77;100.00;98656.22;5044339;27;20194;-80
2022/06/30 02:11:16;;;;;;;17.27;15.48;;;;;;;20.77;100.00;98653.53;5029977;28;20254;-80
2022/06/30 02:13:46;;;;;;;17.10;15.27;;;;;;;20.80;100.00;98662.06;5023308;28;20217;-80
2022/06/30 02:16:17;;;;;;;17.88;14.95;;;;;;;20.78;100.00;98665.97;5030550;28;20193;-80
2022/06/30 02:18:46;;;;;;;19.65;15.30;;;;;;;20.76;100.00;98662.63;5028021;28;20270;-79
2022/06/30 02:21:14;;;;;;;17.35;15.65;;;;;;;20.69;100.00;98659.78;5030829;28;20186;-80
2022/06/30 02:23:42;;;;;;;21.23;15.73;;;;;;;20.65;100.00;98658.44;5025037;28;20201;-80
2022/06/30 02:26:10;;;;;;;17.85;14.20;;;;;;;20.45;100.00;98655.31;5041955;27;20189;-79
2022/06/30 02:28:40;;;;;;;15.82;14.18;;;;;;;20.41;100.00;98653.97;5042355;27;20205;-80
2022/06/30 02:31:12;;;;;;;17.83;14.68;;;;;;;20.46;100.00;98656.16;5026414;28;20198;-80
2022/06/30 02:33:41;;;;;;;17.98;15.70;;;;;;;20.48;100.00;98656.84;5030444;28;20201;-80
2022/06/30 02:36:10;;;;;;;16.30;14.68;;;;;;;20.44;100.00;98664.41;5030048;28;20281;-80
2022/06/30 02:38:38;;;;;;;16.80;15.00;;;;;;;20.45;100.00;98657.16;5028821;28;20253;-79
2022/06/30 02:41:07;;;;;;;17.98;15.13;;;;;;;20.39;100.00;98664.06;5028628;28;20194;-80
2022/06/30 02:43:35;;;;;;;17.27;15.40;;;;;;;20.32;100.00;98668.44;5045845;27;20209;-80
2022/06/30 02:46:03;;;;;;;17.77;14.40;;;;;;;20.48;100.00;98670.28;5027481;28;20205;-80
2022/06/30 02:48:33;;;;;;;17.92;15.65;;;;;;;20.36;100.00;98671.63;5041143;28;20237;-80
2022/06/30 02:51:01;;;;;;;16.60;14.90;;;;;;;20.44;100.00;98667.09;5029573;28;20196;-80
2022/06/30 02:53:29;;;;;;;20.55;15.70;;;;;;;20.46;100.00;98670.47;5030280;28;20204;-80
2022/06/30 02:55:57;;;;;;;15.67;14.27;;;;;;;20.46;100.00;98669.59;5028618;28;20210;-80
2022/06/30 02:58:26;;;;;;;18.25;15.77;;;;;;;20.37;100.00;98666.09;5026455;28;20194;-80
2022/06/30 03:00:54;;;;;;;16.77;15.07;;;;;;;20.50;100.00;98662.88;5044190;27;20190;-80
2022/06/30 03:03:22;;;;;;;18.08;15.68;;;;;;;20.37;100.00;98668.78;5029688;28;20193;-80
2022/06/30 03:05:52;;;;;;;19.38;15.73;;;;;;;20.45;100.00;98676.00;5033408;28;20194;-80
2022/06/30 03:08:20;;;;;;;17.43;14.83;;;;;;;20.34;100.00;98673.66;5027543;28;20278;-79
2022/06/30 03:10:49;;;;;;;20.80;15.18;;;;;;;20.27;100.00;98668.97;5041121;28;20186;-80
2022/06/30 03:13:17;;;;;;;17.93;15.97;;;;;;;20.30;100.00;98670.47;5044335;27;20657;-80
2022/06/30 03:15:47;;;;;;;18.83;17.00;;;;;;;20.19;100.00;98670.84;5027026;28;20383;-80
2022/06/30 03:18:15;;;;;;;18.80;15.75;;;;;;;20.33;100.00;98666.59;5035761;28;20201;-80
2022/06/30 03:20:44;;;;;;;19.30;16.33;;;;;;;20.29;100.00;98669.63;5042888;27;20201;-80
2022/06/30 03:23:13;;;;;;;17.20;15.50;;;;;;;20.11;100.00;98674.38;5030310;28;20201;-80
2022/06/30 03:25:41;;;;;;;17.90;16.10;;;;;;;20.06;100.00;98667.81;5028704;28;20194;-80
2022/06/30 03:28:10;;;;;;;19.85;16.15;;;;;;;19.92;100.00;98669.38;5029677;28;20273;-80
2022/06/30 03:30:41;;;;;;;17.17;14.33;;;;;;;19.89;100.00;98675.09;5027943;28;20194;-80
2022/06/30 03:33:10;;;;;;;19.07;15.97;;;;;;;19.95;100.00;98667.16;5021518;28;20692;-79
2022/06/30 03:35:38;;;;;;;17.27;15.43;;;;;;;20.02;100.00;98665.47;5040237;28;20220;-80
2022/06/30 03:38:07;;;;;;;17.17;15.43;;;;;;;20.02;100.00;98667.34;5035827;28;20229;-81
2022/06/30 03:40:37;;;;;;;17.87;15.73;;;;;;;20.05;100.00;98658.09;5031668;28;20201;-80
2022/06/30 03:43:06;;;;;;;21.03;16.77;;;;;;;20.10;100.00;98670.00;5029471;28;20202;-80
2022/06/30 03:45:35;;;;;;;18.17;16.37;;;;;;;20.07;100.00;98664.97;5030328;28;20194;-80
2022/06/30 03:48:04;;;;;;;17.83;15.43;;;;;;;20.14;100.00;98671.34;5035576;28;20233;-80
2022/06/30 03:50:33;;;;;;;18.63;16.17;;;;;;;19.99;100.00;98665.84;5046409;27;20197;-80
2022/06/30 03:53:02;;;;;;;17.83;15.90;;;;;;;20.00;100.00;98666.69;5029194;28;20198;-80
2022/06/30 03:55:33;;;;;;;18.47;16.13;;;;;;;20.02;100.00;98667.34;5032508;28;20243;-80
2022/06/30 03:58:03;;;;;;;20.50;15.97;;;;;;;20.04;100.00;98670.69;5029223;28;20198;-80
2022/06/30 04:00:33;;;;;;;19.17;16.07;;;;;;;19.97;100.00;98662.44;5030027;28;20660;-80
2022/06/30 04:03:02;;;;;;;20.43;17.07;;;;;;;19.92;100.00;98656.75;5033721;28;20198;-81
2022/06/30 04:05:30;;;;;;;18.33;16.33;;;;;;;20.01;100.00;98662.97;5032771;28;20201;-80
2022/06/30 04:07:59;;;;;;;18.77;16.07;;;;;;;19.89;100.00;98664.34;5033157;28;20202;-79
2022/06/30 04:10:27;;;;;;;18.53;15.80;;;;;;;19.90;100.00;98661.47;5031681;28;20190;-79
2022/06/30 04:12:55;;;;;;;16.97;15.27;;;;;;;19.84;100.00;98669.38;5028969;28;20199;-80
2022/06/30 04:15:25;;;;;;;19.90;15.63;;;;;;;19.70;100.00;98671.75;5037076;28;20231;-80
2022/06/30 04:17:54;;;;;;;19.67;15.63;;;;;;;19.73;100.00;98663.31;5032935;28;20276;-79
2022/06/30 04:20:22;;;;;;;17.77;15.87;;;;;;;19.94;100.00;98672.72;5039396;28;20197;-79
2022/06/30 04:22:52;;;;;;;18.37;16.37;;;;;;;19.89;100.00;98667.88;5032531;28;20202;-80
2022/06/30 04:25:21;;;;;;;18.50;16.57;;;;;;;19.91;100.00;98676.59;5031618;28;20194;-80
2022/06/30 04:27:50;;;;;;;18.90;16.10;;;;;;;19.87;100.00;98682.47;5032330;28;20202;-80
2022/06/30 04:32:37;;;;;;;20.17;15.60;;;;;;;19.83;100.00;98676.59;5045295;27;20205;-80
2022/06/30 04:33:09;;;;;;;17.63;15.27;;;;;;;19.96;100.00;98682.28;5032344;28;20197;-80
2022/06/30 04:35:37;;;;;;;18.27;15.80;;;;;;;20.09;100.00;98671.03;5044190;27;20225;-80
2022/06/30 04:38:06;;;;;;;19.07;16.60;;;;;;;20.09;100.00;98684.47;5046416;27;20198;-80
2022/06/30 04:43:20;;;;;;;18.17;15.20;;;;;;;20.25;100.00;98683.59;5031447;28;20202;-80
2022/06/30 04:45:48;;;;;;;18.00;15.50;;;;;;;20.18;100.00;98683.44;5036665;28;20312;-80
2022/06/30 04:48:18;;;;;;;17.97;15.43;;;;;;;20.36;100.00;98679.69;5034314;28;20233;-80
2022/06/30 04:50:47;;;;;;;19.87;15.57;;;;;;;20.43;100.00;98680.72;5049634;27;20196;-80
2022/06/30 04:53:15;;;;;;;16.88;14.85;;;;;;;20.51;100.00;98678.84;5040460;28;20190;-80
2022/06/30 04:55:43;;;;;;;16.90;15.30;;;;;;;20.41;100.00;98675.47;5053378;27;20221;-80
2022/06/30 04:58:12;;;;;;;16.83;15.13;;;;;;;20.43;100.00;98672.66;5046814;27;20194;-80
2022/06/30 05:00:40;;;;;;;18.33;15.67;;;;;;;20.51;100.00;98662.69;5121226;27;20186;-80
2022/06/30 05:03:08;;;;;;;17.90;15.90;;;;;;;20.61;100.00;98670.56;5034946;28;20261;-80
2022/06/30 05:05:38;;;;;;;18.83;16.87;;;;;;;20.50;100.00;98665.56;5037107;27;20209;-80
2022/06/30 05:08:06;;;;;;;19.40;17.07;;;;;;;20.65;100.00;98660.28;5028407;28;20261;-80
2022/06/30 05:10:35;;;;;;;18.40;16.43;;;;;;;20.70;100.00;98658.75;5030534;28;20222;-79
2022/06/30 05:13:04;;;;;;;17.85;15.95;;;;;;;20.67;100.00;98663.66;5029180;28;20643;-80
2022/06/30 05:15:32;;;;;;;16.83;15.13;;;;;;;20.73;100.00;98658.41;5031238;28;20279;-80
2022/06/30 05:18:01;;;;;;;18.15;16.27;;;;;;;20.74;100.00;98661.94;5042410;27;20198;-80
2022/06/30 05:20:29;;;;;;;18.13;15.97;;;;;;;20.82;100.00;98662.75;5031467;28;20205;-80
2022/06/30 05:22:59;;;;;;;17.27;15.50;;;;;;;20.88;100.00;98655.00;5031160;28;20271;-80
2022/06/30 05:28:12;;;;;;;17.90;16.13;;;;;;;21.01;100.00;98660.63;5031105;28;20613;-79
2022/06/30 05:30:41;;;;;;;18.30;16.43;;;;;;;21.10;100.00;98664.94;5041247;28;20251;-80
2022/06/30 05:33:10;;;;;;;23.03;15.93;;;;;;;21.19;100.00;98663.88;5042326;27;20231;-80
2022/06/30 05:35:40;;;;;;;19.20;15.57;;;;;;;21.18;100.00;98666.75;5039761;28;20237;-80
2022/06/30 05:38:09;;;;;;;16.50;14.90;;;;;;;21.43;100.00;98663.78;5030088;28;20205;-80
2022/06/30 05:40:38;;;;;;;16.80;14.98;;;;;;;21.34;100.00;98656.75;5029757;28;20219;-80
2022/06/30 05:43:07;;;;;;;16.40;14.67;;;;;;;21.42;100.00;98650.44;5031176;28;20201;-80
2022/06/30 05:45:36;;;;;;;16.25;14.55;;;;;;;21.42;100.00;98648.63;5026242;28;20193;-80
2022/06/30 05:48:05;;;;;;;17.97;16.17;;;;;;;21.32;100.00;98647.16;5030747;28;20225;-80
2022/06/30 05:50:33;;;;;;;17.03;15.40;;;;;;;21.64;100.00;98638.00;4989290;28;20259;-79
2022/06/30 05:53:01;;;;;;;17.43;15.30;;;;;;;21.76;100.00;98636.53;4984309;28;20207;-80
2022/06/30 05:55:31;;;;;;;17.10;15.25;;;;;;;21.70;100.00;98638.09;4988183;28;20203;-79
2022/06/30 05:58:04;;;;;;;17.13;15.10;;;;;;;21.72;100.00;98640.63;4989443;28;20199;-80
2022/06/30 06:00:33;;;;;;;16.80;15.00;;;;;;;21.74;100.00;98646.69;4988991;28;20188;-79
2022/06/30 06:03:01;;;;;;;18.07;15.00;;;;;;;21.92;100.00;98640.94;4989086;28;20195;-80
2022/06/30 06:05:29;;;;;;;17.13;15.32;;;;;;;22.01;100.00;98639.84;4984695;28;20199;-80
2022/06/30 06:08:05;;;;;;;14.85;13.30;;;;;;;22.23;100.00;98638.13;4993039;28;20202;-80
2022/06/30 06:10:35;;;;;;;15.25;13.80;;;;;;;22.44;100.00;98635.53;5031534;28;20209;-80
2022/06/30 06:13:03;;;;;;;15.88;14.27;;;;;;;22.66;100.00;98632.88;5030802;28;20191;-80
2022/06/30 06:15:32;;;;;;;17.10;14.85;;;;;;;22.48;100.00;98633.28;5030126;28;20286;-80
2022/06/30 06:18:01;;;;;;;16.38;14.70;;;;;;;22.45;100.00;98639.91;5034968;27;20190;-80
2022/06/30 06:20:29;;;;;;;15.75;14.15;;;;;;;22.54;100.00;98637.94;5023521;28;20209;-80
2022/06/30 06:22:57;;;;;;;15.00;13.50;;;;;;;22.65;100.00;98642.03;5030405;28;20210;-80
2022/06/30 06:25:26;;;;;;;15.15;13.77;;;;;;;22.70;100.00;98639.59;5028625;28;20309;-80
2022/06/30 06:30:41;;;;;;;15.45;13.73;;;;;;;22.77;100.00;98646.75;5030242;28;20205;-80
2022/06/30 06:33:10;;;;;;;15.68;14.07;;;;;;;22.96;100.00;98634.53;5029973;28;20224;-80
2022/06/30 06:35:38;;;;;;;14.40;12.80;;;;;;;23.06;100.00;98632.38;5024372;28;20197;-80
2022/06/30 06:38:07;;;;;;;13.90;12.35;;;;;;;23.26;100.00;98624.50;5029139;28;20197;-80
2022/06/30 06:40:36;;;;;;;13.75;12.45;;;;;;;23.27;100.00;98614.53;5027096;28;20194;-79
2022/06/30 06:43:05;;;;;;;14.13;12.73;;;;;;;23.39;100.00;98618.38;5029938;28;20192;-79
2022/06/30 06:45:34;;;;;;;13.50;11.77;;;;;;;23.42;100.00;98618.81;5033520;28;20194;-79
2022/06/30 06:48:02;;;;;;;12.90;11.60;;;;;;;23.36;100.00;98608.81;5029459;28;20233;-79
2022/06/30 06:50:31;;;;;;;13.27;12.10;;;;;;;23.50;100.00;98614.31;5025161;28;20205;-78
2022/06/30 06:52:59;;;;;;;13.20;11.82;;;;;;;23.36;100.00;98610.66;5029518;28;20200;-78
2022/06/30 06:55:27;;;;;;;12.10;10.88;;;;;;;23.52;100.00;98607.69;5028737;28;20201;-78
2022/06/30 06:57:55;;;;;;;16.15;12.23;;;;;;;23.69;100.00;98613.69;5029476;28;20221;-79
2022/06/30 07:00:25;;;;;;;14.27;11.90;;;;;;;23.68;100.00;98610.16;5026755;28;20201;-78
2022/06/30 07:02:53;;;;;;;11.82;10.75;;;;;;;23.74;100.00;98608.53;5024150;28;20202;-79
2022/06/30 07:05:22;;;;;;;13.52;11.63;;;;;;;23.76;100.00;98602.94;5029669;28;20190;-78
2022/06/30 07:07:57;;;;;;;12.55;11.25;;;;;;;23.99;100.00;98598.94;5029060;28;20209;-79
2022/06/30 07:10:26;;;;;;;13.02;11.30;;;;;;;24.09;100.00;98598.56;5044497;27;20205;-79
2022/06/30 07:12:54;;;;;;;13.05;11.75;;;;;;;23.97;100.00;98589.34;5026174;28;20201;-79
2022/06/30 07:15:22;;;;;;;12.48;11.18;;;;;;;24.11;100.00;98601.91;5029579;28;20205;-79
2022/06/30 07:17:52;;;;;;;13.00;10.93;;;;;;;24.09;100.00;98608.56;5029466;28;20300;-78
2022/06/30 07:20:20;;;;;;;12.75;11.13;;;;;;;24.20;100.00;98610.72;5029491;28;20205;-78
2022/06/30 07:22:49;;;;;;;10.55;9.48;;;;;;;24.26;100.00;98607.22;5029279;28;20674;-78
2022/06/30 07:25:34;;;;;;;12.02;10.82;;;;;;;24.22;100.00;98603.22;5027169;28;20206;-79
2022/06/30 07:28:05;;;;;;;11.02;10.02;;;;;;;24.49;100.00;98606.94;5023247;28;20193;-79
2022/06/30 07:30:34;;;;;;;11.98;10.77;;;;;;;24.41;100.00;98607.94;5035434;28;20194;-79
2022/06/30 07:33:03;;;;;;;14.57;10.50;;;;;;;24.35;100.00;98616.06;5029547;28;20198;-79
2022/06/30 07:35:35;;;;;;;11.90;10.48;;;;;;;24.61;100.00;98613.50;5030873;28;20235;-79
2022/06/30 07:38:03;;;;;;;13.35;11.05;;;;;;;24.67;100.00;98617.25;5034522;28;20229;-77
2022/06/30 07:40:32;;;;;;;12.27;11.02;;;;;;;24.57;100.00;98614.91;5031415;28;20202;-79
2022/06/30 07:43:00;;;;;;;11.18;9.65;;;;;;;24.75;100.00;98614.38;5032605;28;20216;-78
2022/06/30 07:45:29;;;;;;;9.70;8.70;;;;;;;24.58;100.00;98611.16;5026601;28;20201;-78
2022/06/30 07:47:57;;;;;;;12.02;9.82;;;;;;;24.46;100.00;98608.19;5028231;28;20229;-78
2022/06/30 07:50:26;;;;;;;9.82;8.90;;;;;;;24.82;100.00;98605.22;5033167;28;20200;-79
2022/06/30 07:52:55;;;;;;;12.50;9.93;;;;;;;24.96;100.00;98602.56;5028902;28;20202;-79
2022/06/30 07:55:23;;;;;;;11.70;10.27;;;;;;;24.43;100.00;98607.78;5030054;28;20206;-79
2022/06/30 07:57:51;;;;;;;12.85;10.35;;;;;;;24.54;100.00;98608.03;5044104;27;20780;-79
2022/06/30 08:00:24;;;;;;;10.75;9.75;;;;;;;24.67;100.00;98609.13;5032218;28;20370;-79
2022/06/30 08:02:52;;;;;;;10.00;9.10;;;;;;;25.02;100.00;98604.50;5031029;28;20201;-79
2022/06/30 08:05:21;;;;;;;11.73;9.85;;;;;;;25.26;100.00;98608.50;5032121;28;20200;-79
2022/06/30 08:07:51;;;;;;;10.40;9.40;;;;;;;24.92;100.00;98598.59;5033817;28;20280;-79
2022/06/30 08:10:19;;;;;;;10.25;9.25;;;;;;;25.02;100.00;98601.78;5030003;28;20194;-79
2022/06/30 08:12:47;;;;;;;10.82;9.73;;;;;;;24.84;100.00;98600.44;5032062;28;20196;-79
2022/06/30 08:15:15;;;;;;;10.55;9.55;;;;;;;25.32;100.00;98600.38;5027804;28;20201;-79
2022/06/30 08:17:43;;;;;;;10.15;9.10;;;;;;;25.67;100.00;98595.63;5032166;28;20225;-79
2022/06/30 08:20:12;;;;;;;10.10;9.07;;;;;;;25.92;100.00;98595.00;5027718;28;20213;-79
2022/06/30 08:22:40;;;;;;;9.82;8.82;;;;;;;25.88;100.00;98586.44;5033052;28;20202;-80
2022/06/30 08:25:11;;;;;;;10.48;8.98;;;;;;;25.62;100.00;98595.41;5037133;27;20201;-79
2022/06/30 08:27:39;;;;;;;10.32;9.02;;;;;;;26.13;100.00;98589.31;5035065;28;20281;-79
2022/06/30 08:30:08;;;;;;;8.77;7.88;;;;;;;26.38;100.00;98594.94;5030128;28;20628;-79
2022/06/30 08:32:36;;;;;;;8.98;8.07;;;;;;;26.55;100.00;98589.03;5031840;28;20198;-79
2022/06/30 08:35:06;;;;;;;10.13;8.82;;;;;;;26.76;100.00;98581.41;5031551;28;20303;-79
2022/06/30 08:37:34;;;;;;;9.52;8.73;;;;;;;26.78;100.00;98583.91;5032008;28;20226;-79
2022/06/30 08:42:57;;;;;;;9.70;8.80;;;;;;;27.23;100.00;98578.47;5035541;28;20676;-79
2022/06/30 08:45:26;;;;;;;10.15;8.77;;;;;;;26.72;100.00;98573.91;5027772;28;20206;-79
2022/06/30 08:47:54;;;;;;;9.63;8.73;;;;;;;26.70;100.00;98576.84;5031170;28;20225;-79
2022/06/30 08:50:22;;;;;;;9.73;8.75;;;;;;;26.46;100.00;98574.88;5029885;28;20209;-79
2022/06/30 08:52:53;;;;;;;11.70;9.30;;;;;;;26.79;100.00;98574.72;5031872;28;20202;-79
2022/06/30 08:55:25;;;;;;;10.00;9.02;;;;;;;26.75;100.00;98584.34;5032346;28;20217;-79
2022/06/30 08:57:59;;;;;;;8.70;7.90;;;;;;;27.08;100.00;98576.03;5031622;28;20214;-79
2022/06/30 09:00:28;;;;;;;9.80;8.77;;;;;;;27.00;100.00;98577.09;5030019;28;20202;-79
2022/06/30 09:02:56;;;;;;;8.88;8.07;;;;;;;27.32;100.00;98569.00;5031700;28;20245;-79
2022/06/30 09:05:24;;;;;;;9.57;8.60;;;;;;;27.38;100.00;98565.38;5031384;28;20205;-79
2022/06/30 09:07:53;;;;;;;12.05;8.40;;;;;;;27.59;100.00;98572.31;5037576;27;20201;-79
2022/06/30 09:10:48;;;;;;;8.68;7.78;;;;;;;27.86;100.00;98568.34;5030176;28;20716;-79
2022/06/30 09:13:18;;;;;;;9.15;7.68;;;;;;;27.23;100.00;98559.44;5031597;28;20208;-79
2022/06/30 09:15:47;;;;;;;8.38;7.13;;;;;;;27.39;100.00;98562.44;5031742;28;20221;-79
2022/06/30 09:18:22;;;;;;;7.80;6.55;;;;;;;27.36;100.00;98554.72;5028453;28;20301;-79
2022/06/30 09:20:50;;;;;;;7.63;6.75;;;;;;;27.85;100.00;98554.97;5031073;28;20209;-79
2022/06/30 09:23:20;;;;;;;7.47;6.25;;;;;;;28.04;100.00;98550.38;5045256;27;20290;-79
2022/06/30 09:25:51;;;;;;;5.95;5.43;;;;;;;28.32;100.00;98544.44;5030092;28;20273;-79
2022/06/30 09:28:42;;;;;;;6.80;5.88;;;;;;;28.75;100.00;98541.59;5037530;27;20204;-79
2022/06/30 09:31:35;;;;;;;8.30;7.10;;;;;;;28.67;100.00;98539.19;5031292;27;20251;-79
2022/06/30 09:34:12;;;;;;;7.53;6.78;;;;;;;28.41;100.00;98545.81;5030930;28;20193;-79
2022/06/30 09:36:41;;;;;;;7.15;6.05;;;;;;;28.69;100.00;98542.53;5030858;28;20190;-79
2022/06/30 09:39:13;;;;;;;7.03;6.32;;;;;;;27.92;100.00;98540.25;5029630;28;20798;-79
2022/06/30 09:41:43;;;;;;;6.20;5.55;;;;;;;28.16;100.00;98541.22;5027932;28;20209;-79
2022/06/30 09:44:21;;;;;;;5.40;4.90;;;;;;;28.63;97.66;98538.81;5030673;28;20386;-79
2022/06/30 09:46:57;;;;;;;5.40;4.90;;;;;;;28.91;93.43;98534.69;5030666;28;20228;-78
2022/06/30 09:49:30;;;;;;;5.55;4.93;;;;;;;28.63;90.48;98533.34;5033165;28;20208;-78
2022/06/30 09:51:59;;;;;;;5.68;4.75;;;;;;;29.06;91.47;98535.13;5030583;28;20198;-79
2022/06/30 09:54:27;;;;;;;5.82;5.30;;;;;;;29.21;92.86;98534.66;5030779;28;20201;-78
2022/06/30 09:57:04;;;;;;;9.55;5.70;;;;;;;29.68;91.06;98529.31;5027559;28;20202;-79
2022/06/30 09:59:36;;;;;;;5.55;5.05;;;;;;;29.78;87.82;98524.91;5090851;28;20219;-78
2022/06/30 10:02:06;;;;;;;5.20;4.70;;;;;;;29.97;90.11;98522.06;5083978;28;20230;-79
2022/06/30 10:04:53;;;;;;;7.18;4.85;;;;;;;29.44;86.91;98532.00;5082815;28;20258;-78
2022/06/30 10:07:22;;;;;;;5.75;4.95;;;;;;;29.33;86.29;98528.16;5091530;28;20195;-79
2022/06/30 10:09:51;;;;;;;5.18;4.68;;;;;;;29.00;91.85;98534.13;5091668;28;20188;-79
2022/06/30 10:12:20;;;;;;;6.43;4.43;;;;;;;29.54;85.39;98531.44;5084388;28;20650;-79
2022/06/30 10:14:52;;;;;;;5.50;5.00;;;;;;;30.06;80.10;98532.38;5091545;28;20200;-79
2022/06/30 10:17:23;;;;;;;5.22;4.15;;;;;;;30.00;78.33;98532.50;5052919;28;20206;-78
2022/06/30 10:19:53;;;;;;;4.35;3.53;;;;;;;29.08;73.85;98532.97;5028562;28;20214;-78
2022/06/30 10:22:23;;;;;;;5.38;4.57;;;;;;;29.03;78.20;98533.66;5027975;28;20273;-79
2022/06/30 10:24:54;;;;;;;7.00;4.30;;;;;;;29.64;78.88;98512.56;5035898;28;20198;-79
2022/06/30 10:27:24;;;;;;;4.35;3.95;;;;;;;30.34;70.28;98523.44;5030287;28;20201;-79
2022/06/30 10:29:57;;;;;;;4.13;3.70;;;;;;;30.84;65.27;98516.53;5030192;28;20194;-80
2022/06/30 10:32:42;;;;;;;5.45;4.90;;;;;;;30.69;75.04;98508.84;5030093;28;20221;-79
2022/06/30 10:35:24;;;;;;;5.35;4.40;;;;;;;31.21;70.21;98504.09;5068604;28;20196;-79
2022/06/30 10:37:58;;;;;;;4.43;4.03;;;;;;;31.89;67.21;98511.25;5070923;28;20196;-79
2022/06/30 10:40:48;;;;;;;4.30;3.90;;;;;;;31.50;67.14;98498.56;5067436;28;20192;-79
2022/06/30 10:43:18;;;;;;;5.65;4.00;;;;;;;31.92;60.37;98500.84;5069329;28;20191;-80
2022/06/30 10:45:57;;;;;;;4.03;3.50;;;;;;;32.64;55.78;98507.03;5066679;28;20201;-79
2022/06/30 10:48:27;;;;;;;5.50;3.72;;;;;;;32.41;54.33;98507.28;5067935;28;20236;-79
2022/06/30 10:50:57;;;;;;;4.15;3.78;;;;;;;32.37;53.44;98500.66;5068400;28;20283;-79
2022/06/30 10:53:52;;;;;;;5.80;3.70;;;;;;;32.27;52.24;98503.25;5082267;28;20207;-79
2022/06/30 10:56:23;;;;;;;4.63;3.80;;;;;;;32.02;53.05;98501.81;5091509;28;20198;-79
2022/06/30 10:59:10;;;;;;;5.35;4.03;;;;;;;32.30;58.77;98489.88;5093157;28;20278;-79
2022/06/30 11:02:01;;;;;;;7.20;3.88;;;;;;;31.99;57.13;98494.09;5090402;28;20199;-80
2022/06/30 11:04:29;;;;;;;5.50;3.85;;;;;;;32.45;56.89;98490.06;5092976;28;20282;-79
2022/06/30 11:07:00;;;;;;;4.75;4.00;;;;;;;32.92;57.12;98491.44;5092541;28;20199;-79
2022/06/30 11:10:06;;;;;;;4.15;3.75;;;;;;;33.23;53.57;98481.56;5086216;28;20195;-80
2022/06/30 11:12:56;;;;;;;7.65;3.72;;;;;;;33.18;52.55;98487.00;5096084;28;20198;-79
2022/06/30 11:15:54;;;;;;;5.28;3.60;;;;;;;32.80;55.80;98480.56;5096775;28;20191;-79
2022/06/30 11:18:25;;;;;;;4.47;3.40;;;;;;;32.47;53.85;98479.69;5096984;28;20304;-79
2022/06/30 11:20:58;;;;;;;5.38;3.42;;;;;;;32.02;51.22;98481.81;5096748;28;20206;-79
2022/06/30 11:23:27;;;;;;;4.07;3.42;;;;;;;32.99;51.62;98476.41;5095165;28;20234;-80
2022/06/30 11:28:42;;;;;;;5.25;3.72;;;;;;;32.70;49.61;98474.97;5094061;28;20199;-79
2022/06/30 11:31:32;;;;;;;4.75;4.05;;;;;;;33.31;47.09;98475.59;5095419;28;20230;-80
2022/06/30 11:34:06;;;;;;;5.28;3.60;;;;;;;33.27;49.56;98463.47;5096456;28;20196;-79
2022/06/30 11:36:35;;;;;;;6.82;4.00;;;;;;;33.44;48.40;98466.09;5094489;28;20211;-80
2022/06/30 11:39:06;;;;;;;4.25;3.60;;;;;;;32.72;48.69;98468.16;5096309;28;20220;-80
2022/06/30 11:44:22;;;;;;;5.88;3.95;;;;;;;32.32;51.47;98462.22;5096121;28;20195;-79
2022/06/30 11:46:54;;;;;;;5.07;3.95;;;;;;;32.07;52.19;98458.06;5062116;28;20287;-79
2022/06/30 11:49:27;;;;;;;4.72;3.75;;;;;;;32.49;51.11;98441.03;5032957;28;20226;-80